Time;durP1;ratioP1;P1;durP2;ratioP2;P2;SDS_P1;SDS_P2;PMS_P1;PMS_P2;Temp;Humidity;BMP_temperature;BMP_pressure;BME280_temperature;BME280_humidity;BME280_pressure;Samples;Min_cycle;Max_cycle;Signal;HPM_P1;HPM_P2
2021/12/31 00:01:18;;;;;;;2.08;1.13;;;17.10;66.80;;;;;;5052511;28;20136;-73
2021/12/31 00:03:46;;;;;;;2.00;1.00;;;17.10;67.00;;;;;;5050708;28;20510;-73
2021/12/31 00:06:12;;;;;;;3.95;1.25;;;16.20;66.40;;;;;;5043761;28;20057;-73
2021/12/31 00:08:39;;;;;;;2.00;1.02;;;;;;;;;;5032194;28;20160;-73
2021/12/31 00:11:06;;;;;;;2.92;1.20;;;17.30;66.90;;;;;;5032093;28;20060;-73
2021/12/31 00:13:33;;;;;;;2.58;1.17;;;;;;;;;;5032167;28;20136;-74
2021/12/31 00:16:00;;;;;;;3.15;1.33;;;16.40;66.70;;;;;;5031873;28;20133;-73
2021/12/31 00:18:27;;;;;;;2.45;1.20;;;;;;;;;;5032180;28;20136;-73
2021/12/31 00:20:56;;;;;;;2.28;1.13;;;16.50;66.60;;;;;;5033269;28;20073;-73
2021/12/31 00:23:25;;;;;;;2.45;1.00;;;15.70;66.40;;;;;;5032192;28;20060;-74
2021/12/31 00:25:52;;;;;;;2.20;1.20;;;;;;;;;;5030781;28;20053;-74
2021/12/31 00:28:19;;;;;;;3.45;1.20;;;16.00;66.50;;;;;;5032038;28;20132;-74
2021/12/31 00:30:51;;;;;;;2.13;1.42;;;15.60;60.70;;;;;;5032130;28;20505;-74
2021/12/31 00:33:18;;;;;;;1.75;1.10;;;16.40;64.00;;;;;;5032029;28;20107;-74
2021/12/31 00:35:45;;;;;;;2.03;1.20;;;;;;;;;;5031230;28;20138;-73
2021/12/31 00:38:13;;;;;;;2.13;1.23;;;16.50;60.30;;;;;;5033118;28;20128;-74
2021/12/31 00:40:40;;;;;;;3.15;1.20;;;16.50;60.80;;;;;;5031807;28;20140;-74
2021/12/31 00:43:10;;;;;;;2.22;1.10;;;16.00;62.50;;;;;;5031714;28;20128;-74
2021/12/31 00:45:39;;;;;;;4.28;1.45;;;16.40;66.40;;;;;;5031267;28;20081;-74
2021/12/31 00:48:06;;;;;;;2.80;1.10;;;;;;;;;;5031642;28;20064;-73
2021/12/31 00:50:33;;;;;;;1.95;1.10;;;;;;;;;;5031511;28;20140;-74
2021/12/31 00:53:00;;;;;;;2.05;1.00;;;;;;;;;;5031551;28;20088;-74
2021/12/31 00:55:29;;;;;;;2.15;1.30;;;16.40;66.70;;;;;;5032160;28;20045;-74
2021/12/31 00:57:55;;;;;;;2.22;1.10;;;16.30;66.70;;;;;;5031106;28;20089;-74
2021/12/31 01:00:22;;;;;;;2.50;1.15;;;;;;;;;;5031384;28;20479;-73
2021/12/31 01:02:49;;;;;;;2.47;1.10;;;16.40;66.70;;;;;;5031109;28;20132;-74
2021/12/31 01:05:16;;;;;;;1.90;1.00;;;16.20;66.40;;;;;;5031334;28;20140;-74
2021/12/31 01:07:43;;;;;;;1.55;0.93;;;16.30;64.10;;;;;;5031109;28;20057;-74
2021/12/31 01:10:12;;;;;;;2.53;1.02;;;16.80;59.90;;;;;;5031010;28;20079;-74
2021/12/31 01:12:41;;;;;;;2.30;1.08;;;15.50;66.00;;;;;;5032226;28;20124;-74
2021/12/31 01:15:11;;;;;;;1.52;1.10;;;16.40;66.80;;;;;;5031140;28;20049;-74
2021/12/31 01:17:49;;;;;;;3.22;1.23;;;16.20;66.50;;;;;;5031179;28;20115;-74
2021/12/31 01:20:18;;;;;;;1.80;1.10;;;15.50;66.10;;;;;;5031216;28;20141;-74
2021/12/31 01:22:45;;;;;;;2.25;1.10;;;16.00;63.30;;;;;;5031168;28;20069;-73
2021/12/31 01:25:12;;;;;;;2.05;1.20;;;;;;;;;;5030918;28;20081;-74
2021/12/31 01:27:40;;;;;;;1.67;1.00;;;16.20;60.20;;;;;;5031054;28;20136;-74
2021/12/31 01:30:08;;;;;;;2.08;1.10;;;16.20;61.60;;;;;;5031318;28;20085;-73
2021/12/31 01:32:35;;;;;;;2.85;1.20;;;16.40;62.20;;;;;;5030914;28;20204;-74
2021/12/31 01:35:02;;;;;;;2.67;1.13;;;16.10;66.70;;;;;;5030893;28;20531;-74
2021/12/31 01:37:29;;;;;;;2.08;1.10;;;15.60;66.30;;;;;;5030488;28;20126;-74
2021/12/31 01:39:56;;;;;;;1.52;1.00;;;16.40;65.80;;;;;;5030874;28;20064;-74
2021/12/31 01:42:28;;;;;;;2.17;1.17;;;16.20;63.00;;;;;;5030892;28;20092;-74
2021/12/31 01:44:59;;;;;;;2.20;1.00;;;16.20;59.60;;;;;;5031996;28;20049;-74
2021/12/31 01:47:34;;;;;;;2.92;1.35;;;16.20;66.70;;;;;;5030468;28;20057;-74
2021/12/31 01:50:06;;;;;;;2.00;1.10;;;16.10;66.60;;;;;;5030671;28;20053;-74
2021/12/31 01:52:33;;;;;;;3.63;1.52;;;17.10;67.00;;;;;;5030345;28;20132;-74
2021/12/31 01:55:01;;;;;;;2.88;1.10;;;16.30;66.60;;;;;;5030623;28;20132;-74
2021/12/31 01:57:27;;;;;;;1.83;1.10;;;16.20;66.80;;;;;;5030569;28;20136;-74
2021/12/31 01:59:54;;;;;;;1.85;1.17;;;;;;;;;;5030399;28;20144;-74
2021/12/31 02:02:22;;;;;;;1.70;1.17;;;15.80;66.60;;;;;;5031865;28;20051;-74
2021/12/31 02:04:49;;;;;;;1.85;1.00;;;16.60;66.70;;;;;;5030604;28;20208;-74
2021/12/31 02:07:16;;;;;;;2.17;1.08;;;;;;;;;;5030398;28;20492;-74
2021/12/31 02:09:48;;;;;;;1.58;1.00;;;;;;;;;;5030301;28;20081;-74
2021/12/31 02:12:15;;;;;;;2.65;1.30;;;;;;;;;;5031241;28;20118;-74
2021/12/31 02:14:42;;;;;;;2.60;1.08;;;;;;;;;;5030596;28;20081;-74
2021/12/31 02:17:10;;;;;;;1.73;1.10;;;15.50;66.30;;;;;;5030233;28;20140;-74
2021/12/31 02:19:39;;;;;;;2.38;1.58;;;16.00;66.50;;;;;;5031391;28;20053;-74
2021/12/31 02:22:08;;;;;;;3.20;1.20;;;16.10;66.80;;;;;;5030480;28;20524;-74
2021/12/31 02:24:36;;;;;;;2.45;1.23;;;;;;;;;;5030382;28;20061;-73
2021/12/31 02:27:03;;;;;;;1.98;1.15;;;16.10;63.00;;;;;;5029960;28;20570;-74
2021/12/31 02:29:30;;;;;;;1.83;1.00;;;16.20;66.90;;;;;;5030302;28;20137;-74
2021/12/31 02:31:57;;;;;;;1.15;0.90;;;15.50;61.40;;;;;;5030114;28;20053;-74
2021/12/31 02:34:23;;;;;;;1.70;1.00;;;16.20;66.90;;;;;;5030312;28;20136;-74
2021/12/31 02:36:51;;;;;;;1.92;1.10;;;;;;;;;;5047652;28;20526;-73
2021/12/31 02:39:19;;;;;;;1.73;1.02;;;17.00;67.30;;;;;;5030428;28;20477;-74
2021/12/31 02:41:46;;;;;;;2.60;1.13;;;16.10;66.50;;;;;;5030150;28;20481;-74
2021/12/31 02:44:12;;;;;;;2.33;1.00;;;16.40;67.00;;;;;;5030231;28;20568;-74
2021/12/31 02:46:39;;;;;;;2.55;1.20;;;16.10;61.60;;;;;;5029602;28;20128;-74
2021/12/31 02:49:06;;;;;;;3.72;1.42;;;16.20;66.80;;;;;;5031893;28;20136;-74
2021/12/31 02:51:33;;;;;;;1.63;1.08;;;16.10;66.80;;;;;;5033887;28;20053;-74
2021/12/31 02:54:00;;;;;;;3.10;1.05;;;15.70;65.50;;;;;;5034935;28;20107;-74
2021/12/31 02:56:29;;;;;;;2.30;1.10;;;16.90;66.90;;;;;;5033233;28;20129;-74
2021/12/31 02:58:56;;;;;;;2.45;1.02;;;;;;;;;;5033542;28;20060;-74
2021/12/31 03:01:23;;;;;;;2.22;1.17;;;15.90;66.40;;;;;;5033762;28;20591;-74
2021/12/31 03:03:50;;;;;;;2.00;1.20;;;16.10;62.70;;;;;;5033696;28;20136;-74
2021/12/31 03:06:17;;;;;;;3.50;1.27;;;16.30;66.80;;;;;;5034470;28;20140;-74
2021/12/31 03:08:45;;;;;;;2.55;1.20;;;16.20;59.70;;;;;;5033683;28;20056;-73
2021/12/31 03:11:12;;;;;;;2.42;1.15;;;16.20;60.30;;;;;;5034440;28;20140;-74
2021/12/31 03:13:40;;;;;;;3.70;1.15;;;16.10;59.60;;;;;;5033287;28;20077;-74
2021/12/31 03:16:07;;;;;;;3.03;1.20;;;16.40;67.00;;;;;;5033026;28;20128;-74
2021/12/31 03:18:34;;;;;;;1.85;1.10;;;;;;;;;;5033332;28;20080;-73
2021/12/31 03:21:06;;;;;;;1.88;1.10;;;16.30;67.00;;;;;;5048730;28;20088;-74
2021/12/31 03:23:32;;;;;;;3.88;1.40;;;16.10;61.00;;;;;;5033541;28;20097;-73
2021/12/31 03:25:59;;;;;;;2.40;1.20;;;16.30;67.00;;;;;;5032693;28;20565;-74
2021/12/31 03:28:26;;;;;;;1.17;1.02;;;15.30;59.60;;;;;;5032959;28;20081;-74
2021/12/31 03:30:54;;;;;;;1.65;1.05;;;15.50;65.00;;;;;;5032870;28;20133;-74
2021/12/31 03:33:21;;;;;;;2.20;1.20;;;16.10;66.60;;;;;;5033302;28;20140;-74
2021/12/31 03:35:48;;;;;;;2.67;1.30;;;16.10;66.60;;;;;;5039483;28;20128;-74
2021/12/31 03:38:15;;;;;;;2.70;1.25;;;;;;;;;;5053038;28;20468;-74
2021/12/31 03:40:42;;;;;;;1.77;1.00;;;15.80;66.50;;;;;;5052631;28;20128;-74
2021/12/31 03:43:09;;;;;;;2.95;1.20;;;16.30;60.50;;;;;;5052912;28;20132;-74
2021/12/31 03:45:36;;;;;;;1.77;1.08;;;16.00;66.50;;;;;;5052654;28;20045;-74
2021/12/31 03:48:04;;;;;;;3.72;1.15;;;16.10;59.60;;;;;;5052575;28;20390;-73
2021/12/31 03:50:31;;;;;;;2.40;1.08;;;;;;;;;;5052471;28;20060;-74
2021/12/31 03:52:58;;;;;;;2.40;1.10;;;16.20;66.50;;;;;;5050701;28;20128;-74
2021/12/31 03:55:25;;;;;;;3.90;1.10;;;;;;;;;;5052226;28;20632;-74
2021/12/31 03:57:52;;;;;;;1.95;1.20;;;16.30;66.90;;;;;;5052689;28;20140;-74
2021/12/31 04:00:19;;;;;;;1.40;1.00;;;16.20;66.80;;;;;;5052430;28;20128;-74
2021/12/31 04:02:46;;;;;;;1.80;1.20;;;16.10;66.50;;;;;;5052516;28;20132;-74
2021/12/31 04:05:14;;;;;;;1.80;1.20;;;16.20;59.70;;;;;;5052408;28;20139;-74
2021/12/31 04:07:41;;;;;;;1.60;0.90;;;;;;;;;;5052188;28;20140;-74
2021/12/31 04:10:09;;;;;;;3.38;1.15;;;16.40;59.80;;;;;;5050759;28;20085;-74
2021/12/31 04:12:35;;;;;;;2.70;1.13;;;16.20;64.30;;;;;;5052511;28;20128;-74
2021/12/31 04:15:02;;;;;;;1.90;1.13;;;15.50;66.10;;;;;;5052018;28;20183;-74
2021/12/31 04:17:29;;;;;;;1.88;1.10;;;16.10;66.80;;;;;;5051983;28;20132;-74
2021/12/31 04:19:57;;;;;;;2.55;1.15;;;16.40;64.20;;;;;;5052227;28;20084;-74
2021/12/31 04:22:28;;;;;;;2.33;1.33;;;16.20;62.40;;;;;;5052334;28;20064;-73
2021/12/31 04:24:54;;;;;;;2.08;1.35;;;16.20;66.90;;;;;;5052137;28;20529;-73
2021/12/31 04:27:22;;;;;;;2.25;1.25;;;16.20;59.70;;;;;;5049827;28;20127;-74
2021/12/31 04:29:52;;;;;;;2.10;1.10;;;16.10;66.60;;;;;;5051561;28;20505;-74
2021/12/31 04:32:20;;;;;;;1.95;1.15;;;16.20;66.90;;;;;;5052004;28;20080;-74
2021/12/31 04:34:47;;;;;;;2.45;1.20;;;16.20;63.70;;;;;;5051821;28;20080;-74
2021/12/31 04:37:13;;;;;;;1.40;1.00;;;15.40;66.20;;;;;;5051407;28;20080;-73
2021/12/31 04:39:41;;;;;;;2.10;1.20;;;16.20;62.30;;;;;;5052263;28;20120;-74
2021/12/31 04:42:08;;;;;;;2.28;1.15;;;16.20;62.90;;;;;;5051712;28;20501;-73
2021/12/31 04:44:35;;;;;;;1.85;1.10;;;16.20;66.60;;;;;;5050114;28;20099;-72
2021/12/31 04:47:05;;;;;;;1.55;1.23;;;16.20;59.70;;;;;;5051542;28;20136;-72
2021/12/31 04:49:32;;;;;;;1.48;1.10;;;16.20;66.80;;;;;;5051087;28;20131;-73
2021/12/31 04:51:58;;;;;;;2.85;1.30;;;16.10;63.30;;;;;;5044135;28;20133;-74
2021/12/31 04:54:25;;;;;;;2.05;1.30;;;15.70;66.30;;;;;;5032949;28;20132;-73
2021/12/31 04:56:55;;;;;;;1.80;1.25;;;16.90;67.00;;;;;;5049757;28;20081;-73
2021/12/31 04:59:23;;;;;;;3.45;1.35;;;15.70;66.30;;;;;;5051859;28;20139;-73
2021/12/31 05:01:50;;;;;;;2.03;1.10;;;;;;;;;;5036065;28;20061;-73
2021/12/31 05:04:17;;;;;;;3.00;1.10;;;15.90;60.30;;;;;;5031163;28;20501;-73
2021/12/31 05:06:47;;;;;;;1.95;1.20;;;;;;;;;;5030824;28;20128;-74
2021/12/31 05:09:14;;;;;;;2.50;1.30;;;16.10;66.90;;;;;;5031124;28;20057;-73
2021/12/31 05:11:41;;;;;;;4.07;1.23;;;;;;;;;;5030581;28;20088;-73
2021/12/31 05:14:09;;;;;;;2.25;1.20;;;15.40;64.50;;;;;;5032466;28;20136;-73
2021/12/31 05:16:36;;;;;;;1.95;1.00;;;16.30;66.80;;;;;;5031064;28;20132;-73
2021/12/31 05:19:03;;;;;;;3.33;1.38;;;16.30;60.00;;;;;;5050945;28;20087;-73
2021/12/31 05:21:30;;;;;;;2.53;1.40;;;16.30;66.80;;;;;;5051173;28;20057;-73
2021/12/31 05:23:57;;;;;;;2.72;1.30;;;15.80;60.60;;;;;;5051927;28;20049;-73
2021/12/31 05:26:24;;;;;;;1.15;1.02;;;15.80;66.20;;;;;;5045923;28;20132;-74
2021/12/31 05:28:51;;;;;;;1.80;1.00;;;16.30;62.40;;;;;;5039181;28;20498;-73
2021/12/31 05:31:19;;;;;;;2.10;1.10;;;16.40;62.40;;;;;;5030929;28;20141;-73
2021/12/31 05:33:45;;;;;;;2.17;1.30;;;16.40;62.10;;;;;;5030975;28;20132;-73
2021/12/31 05:36:12;;;;;;;1.88;1.20;;;16.50;66.40;;;;;;5030384;28;20053;-73
2021/12/31 05:38:40;;;;;;;1.85;1.10;;;;;;;;;;5030964;28;20057;-72
2021/12/31 05:41:06;;;;;;;2.30;1.17;;;16.40;66.40;;;;;;5045252;28;20139;-73
2021/12/31 05:43:33;;;;;;;1.35;1.10;;;15.80;61.20;;;;;;5050780;28;20135;-73
2021/12/31 05:46:00;;;;;;;2.30;1.58;;;16.10;62.40;;;;;;5050472;28;20136;-74
2021/12/31 05:48:29;;;;;;;1.45;0.95;;;16.30;66.50;;;;;;5050468;28;20095;-73
2021/12/31 05:50:56;;;;;;;2.08;1.20;;;;;;;;;;5050543;28;20057;-73
2021/12/31 05:53:22;;;;;;;1.95;1.10;;;16.50;66.70;;;;;;5051655;28;20492;-74
2021/12/31 05:55:49;;;;;;;3.17;1.10;;;15.80;66.00;;;;;;5050334;28;20061;-74
2021/12/31 05:58:17;;;;;;;1.10;1.00;;;;;;;;;;5048823;28;20159;-74
2021/12/31 06:00:43;;;;;;;2.78;1.10;;;15.50;65.80;;;;;;5050551;28;20242;-73
2021/12/31 06:03:11;;;;;;;2.95;1.30;;;;;;;;;;5050555;28;20136;-73
2021/12/31 06:05:39;;;;;;;2.45;1.17;;;16.50;65.60;;;;;;5050449;28;20549;-73
2021/12/31 06:08:05;;;;;;;2.75;1.27;;;15.70;65.90;;;;;;5050257;28;20132;-73
2021/12/31 06:10:33;;;;;;;1.45;1.00;;;;;;;;;;5050566;28;20135;-73
2021/12/31 06:13:00;;;;;;;1.67;1.10;;;16.90;66.40;;;;;;5050625;28;20498;-74
2021/12/31 06:15:28;;;;;;;1.42;1.17;;;16.50;65.10;;;;;;5048560;28;20095;-73
2021/12/31 06:17:55;;;;;;;1.50;1.13;;;;;;;;;;5050069;28;20049;-72
2021/12/31 06:20:21;;;;;;;1.00;0.90;;;15.70;66.00;;;;;;5050180;28;20137;-74
2021/12/31 06:22:49;;;;;;;1.40;0.90;;;16.20;59.20;;;;;;5050149;28;20088;-74
2021/12/31 06:25:16;;;;;;;1.58;0.90;;;16.50;66.50;;;;;;5055144;28;20632;-74
2021/12/31 06:27:43;;;;;;;1.27;1.00;;;16.60;62.20;;;;;;5054153;28;20128;-73
2021/12/31 06:30:11;;;;;;;1.95;1.20;;;16.50;66.30;;;;;;5054031;28;20147;-73
2021/12/31 06:32:38;;;;;;;1.80;1.13;;;16.40;65.90;;;;;;5038253;28;20080;-74
2021/12/31 06:35:06;;;;;;;1.70;1.20;;;16.50;59.30;;;;;;5034040;28;20057;-73
2021/12/31 06:37:32;;;;;;;1.83;1.10;;;16.40;66.10;;;;;;5033706;28;20136;-74
2021/12/31 06:40:04;;;;;;;1.52;0.95;;;16.50;62.70;;;;;;5047048;28;20445;-73
2021/12/31 06:42:31;;;;;;;1.52;0.93;;;;;;;;;;5053840;28;20063;-72
2021/12/31 06:44:58;;;;;;;1.98;1.10;;;16.10;66.10;;;;;;5054117;28;20473;-73
2021/12/31 06:47:25;;;;;;;1.83;1.13;;;16.40;66.30;;;;;;5047720;28;20132;-73
2021/12/31 06:49:51;;;;;;;1.10;1.00;;;15.80;61.00;;;;;;5034787;28;20124;-73
2021/12/31 06:52:18;;;;;;;1.88;1.00;;;16.60;66.30;;;;;;5033897;28;20507;-73
2021/12/31 06:54:45;;;;;;;1.23;1.02;;;16.50;66.00;;;;;;5033816;28;20136;-74
2021/12/31 06:57:13;;;;;;;1.67;1.00;;;15.80;59.00;;;;;;5033443;28;20053;-74
2021/12/31 06:59:40;;;;;;;1.58;1.00;;;;;;;;;;5033722;28;20063;-74
2021/12/31 07:02:07;;;;;;;1.55;1.00;;;;;;;;;;5041545;28;20482;-73
2021/12/31 07:04:34;;;;;;;1.98;1.05;;;;;;;;;;5053356;28;20140;-73
2021/12/31 07:07:01;;;;;;;1.48;1.13;;;15.80;66.00;;;;;;5053441;28;20077;-74
2021/12/31 07:09:28;;;;;;;1.67;1.08;;;16.70;66.10;;;;;;5053242;28;20160;-74
2021/12/31 07:11:55;;;;;;;2.25;1.10;;;16.80;66.50;;;;;;5053529;28;20053;-74
2021/12/31 07:14:23;;;;;;;0.90;0.90;;;16.50;59.20;;;;;;5053122;28;20148;-73
2021/12/31 07:16:51;;;;;;;1.52;0.90;;;;;;;;;;5053204;28;20557;-73
2021/12/31 07:19:18;;;;;;;1.65;1.10;;;15.90;59.00;;;;;;5043543;28;20089;-73
2021/12/31 07:21:45;;;;;;;1.65;1.00;;;16.80;64.40;;;;;;5033039;28;20132;-73
2021/12/31 07:24:12;;;;;;;1.30;0.93;;;16.00;59.60;;;;;;5033344;28;20136;-73
2021/12/31 07:26:38;;;;;;;1.42;0.90;;;16.50;63.30;;;;;;5032586;28;20132;-73
2021/12/31 07:29:06;;;;;;;1.38;1.00;;;;;;;;;;5033414;28;20085;-73
2021/12/31 07:31:34;;;;;;;1.55;0.98;;;16.60;59.20;;;;;;5033330;28;20065;-73
2021/12/31 07:34:01;;;;;;;1.40;1.00;;;;;;;;;;5032642;28;20558;-73
2021/12/31 07:36:28;;;;;;;1.60;0.90;;;16.90;66.10;;;;;;5042572;28;20405;-73
2021/12/31 07:39:00;;;;;;;1.73;1.00;;;;;;;;;;5053022;28;20071;-73
2021/12/31 07:41:27;;;;;;;2.75;1.10;;;15.80;60.70;;;;;;5052753;28;20122;-73
2021/12/31 07:43:54;;;;;;;1.05;0.95;;;16.90;66.10;;;;;;5052964;28;20522;-73
2021/12/31 07:46:20;;;;;;;1.65;1.13;;;15.90;65.50;;;;;;5052624;28;20788;-74
2021/12/31 07:48:51;;;;;;;1.23;0.93;;;16.50;65.20;;;;;;5052520;28;20135;-73
2021/12/31 07:51:18;;;;;;;1.35;0.98;;;16.60;66.20;;;;;;5052365;28;20053;-74
2021/12/31 07:53:45;;;;;;;1.83;1.20;;;;;;;;;;5037663;28;20511;-73
2021/12/31 07:56:12;;;;;;;2.15;1.30;;;16.60;66.00;;;;;;5032427;28;20132;-73
2021/12/31 07:58:38;;;;;;;1.38;0.82;;;16.10;65.90;;;;;;5032722;28;20054;-74
2021/12/31 08:01:06;;;;;;;1.45;1.00;;;;;;;;;;5032041;28;20045;-74
2021/12/31 08:03:35;;;;;;;0.85;0.80;;;16.60;66.20;;;;;;5033557;28;20053;-74
2021/12/31 08:06:03;;;;;;;1.48;1.00;;;15.90;63.70;;;;;;5032249;28;20053;-73
2021/12/31 08:08:30;;;;;;;1.67;1.00;;;16.50;64.90;;;;;;5032609;28;20083;-73
2021/12/31 08:10:56;;;;;;;1.52;1.00;;;16.80;66.30;;;;;;5032978;28;20508;-74
2021/12/31 08:13:23;;;;;;;1.02;0.93;;;;;;;;;;5032366;28;20502;-72
2021/12/31 08:15:50;;;;;;;1.70;1.05;;;17.50;66.70;;;;;;5041901;28;20131;-74
2021/12/31 08:18:17;;;;;;;0.98;0.90;;;17.20;66.60;;;;;;5051660;28;20083;-72
2021/12/31 08:20:44;;;;;;;1.17;1.00;;;;;;;;;;5051897;28;20124;-73
2021/12/31 08:23:13;;;;;;;1.15;0.90;;;15.90;60.80;;;;;;5052439;28;20191;-73
2021/12/31 08:25:39;;;;;;;1.30;1.02;;;15.80;65.70;;;;;;5049030;28;20037;-70
2021/12/31 08:28:06;;;;;;;1.25;0.90;;;15.80;64.00;;;;;;5051662;28;20538;-72
2021/12/31 08:30:33;;;;;;;1.75;1.10;;;16.70;66.50;;;;;;5051505;28;20131;-72
2021/12/31 08:33:00;;;;;;;1.48;1.00;;;;;;;;;;5051908;28;20136;-74
2021/12/31 08:35:27;;;;;;;1.10;0.90;;;16.60;66.10;;;;;;5051768;28;20057;-72
2021/12/31 08:37:54;;;;;;;2.03;1.10;;;;;;;;;;5049920;28;20049;-74
2021/12/31 08:40:22;;;;;;;1.17;0.98;;;16.60;66.00;;;;;;5051858;28;20143;-72
2021/12/31 08:42:49;;;;;;;2.60;1.10;;;16.60;65.90;;;;;;5052165;28;20077;-72
2021/12/31 08:45:16;;;;;;;2.78;0.98;;;16.60;65.80;;;;;;5052227;28;20128;-73
2021/12/31 08:47:42;;;;;;;1.70;1.10;;;16.80;62.10;;;;;;5050843;28;20125;-73
2021/12/31 08:50:09;;;;;;;1.35;1.13;;;15.90;65.70;;;;;;5046756;28;20082;-73
2021/12/31 08:52:36;;;;;;;2.33;1.17;;;16.70;59.10;;;;;;5033043;28;20515;-72
2021/12/31 08:55:04;;;;;;;2.00;1.10;;;16.30;65.50;;;;;;5038628;28;20140;-73
2021/12/31 08:57:32;;;;;;;1.52;1.02;;;16.80;61.00;;;;;;5051343;28;20080;-73
2021/12/31 08:59:59;;;;;;;1.92;1.20;;;17.00;63.90;;;;;;5051593;28;20132;-73
2021/12/31 09:02:25;;;;;;;2.00;1.00;;;17.00;65.80;;;;;;5048486;28;20140;-74
2021/12/31 09:04:52;;;;;;;2.25;1.10;;;17.00;66.10;;;;;;5051117;28;20140;-74
2021/12/31 09:07:19;;;;;;;1.08;0.90;;;15.90;61.30;;;;;;5050055;28;20083;-73
2021/12/31 09:09:46;;;;;;;1.33;1.00;;;16.80;65.50;;;;;;5051955;28;20128;-73
2021/12/31 09:12:13;;;;;;;1.83;1.00;;;;;;;;;;5051568;28;20132;-74
2021/12/31 09:14:41;;;;;;;1.48;1.00;;;17.20;65.60;;;;;;5049445;28;20132;-73
2021/12/31 09:17:08;;;;;;;2.40;0.90;;;16.30;65.10;;;;;;5049701;28;20049;-73
2021/12/31 09:19:36;;;;;;;1.63;1.00;;;17.10;65.50;;;;;;5034561;28;20140;-74
2021/12/31 09:22:04;;;;;;;1.58;0.90;;;;;;;;;;5046277;28;20509;-73
2021/12/31 09:24:31;;;;;;;1.30;0.95;;;;;;;;;;5049982;28;20049;-73
2021/12/31 09:26:58;;;;;;;1.90;1.00;;;17.00;62.70;;;;;;5033232;28;20136;-73
2021/12/31 09:29:24;;;;;;;1.92;0.90;;;17.30;65.50;;;;;;5037463;28;20124;-68
2021/12/31 09:31:53;;;;;;;1.88;1.02;;;17.00;58.50;;;;;;5042167;28;20068;-74
2021/12/31 09:34:20;;;;;;;1.58;0.98;;;;;;;;;;5041851;28;20145;-74
2021/12/31 09:36:46;;;;;;;1.75;1.05;;;17.20;65.60;;;;;;5038271;28;20132;-74
2021/12/31 09:39:13;;;;;;;1.48;1.00;;;17.00;65.20;;;;;;5039439;28;20140;-74
2021/12/31 09:41:40;;;;;;;1.52;1.00;;;17.10;65.40;;;;;;5024298;28;20076;-74
2021/12/31 09:44:07;;;;;;;2.20;1.13;;;;;;;;;;5039166;28;20049;-74
2021/12/31 09:46:35;;;;;;;1.15;0.90;;;17.10;58.50;;;;;;5039303;28;20219;-74
2021/12/31 09:49:03;;;;;;;1.35;1.00;;;17.20;61.10;;;;;;5038509;28;20125;-74
2021/12/31 09:51:30;;;;;;;1.40;0.90;;;17.40;65.80;;;;;;5040377;28;20055;-74
2021/12/31 09:53:59;;;;;;;1.80;1.05;;;17.30;64.90;;;;;;5038548;28;20107;-74
2021/12/31 09:56:26;;;;;;;1.02;0.93;;;17.10;65.60;;;;;;5046006;28;20056;-72
2021/12/31 09:58:52;;;;;;;1.92;1.17;;;17.20;65.70;;;;;;5053850;28;20044;-72
2021/12/31 10:01:19;;;;;;;1.88;0.90;;;17.30;65.40;;;;;;5053061;28;20084;-72
2021/12/31 10:03:54;;;;;;;2.45;1.00;;;17.10;65.30;;;;;;5048333;28;20121;-72
2021/12/31 10:06:22;;;;;;;1.83;1.00;;;17.20;65.40;;;;;;5047445;28;20529;-72
2021/12/31 10:08:49;;;;;;;1.40;0.90;;;17.20;65.30;;;;;;5048446;28;20387;-72
2021/12/31 10:11:17;;;;;;;1.52;1.13;;;17.40;65.60;;;;;;5048385;28;20132;-72
2021/12/31 10:13:45;;;;;;;2.40;1.10;;;17.40;60.00;;;;;;5056189;28;20092;-72
2021/12/31 10:16:22;;;;;;;0.98;0.88;;;17.90;65.60;;;;;;5049665;28;20136;-72
2021/12/31 10:18:49;;;;;;;1.25;1.00;;;17.40;62.90;;;;;;5046600;28;20045;-72
2021/12/31 10:21:20;;;;;;;1.20;0.90;;;17.50;65.50;;;;;;5047321;28;20132;-72
2021/12/31 10:23:49;;;;;;;1.67;1.10;;;17.30;58.50;;;;;;5048670;28;20081;-73
2021/12/31 10:26:17;;;;;;;1.05;0.95;;;16.90;65.30;;;;;;5041356;28;20502;-74
2021/12/31 10:28:54;;;;;;;1.00;0.90;;;17.70;65.50;;;;;;5050193;28;20450;-71
2021/12/31 10:31:21;;;;;;;1.38;1.10;;;;;;;;;;5055196;28;20139;-74
2021/12/31 10:33:48;;;;;;;1.00;0.88;;;17.40;59.80;;;;;;5056901;28;20131;-71
2021/12/31 10:36:45;;;;;;;0.85;0.82;;;16.60;60.30;;;;;;5056187;28;20083;-72
2021/12/31 10:39:21;;;;;;;1.65;0.95;;;17.50;65.70;;;;;;5015151;28;20056;-72
2021/12/31 10:41:51;;;;;;;1.00;0.90;;;17.50;60.10;;;;;;5033026;28;20132;-71
2021/12/31 10:44:18;;;;;;;1.52;1.00;;;17.30;65.30;;;;;;5047482;28;20141;-71
2021/12/31 10:46:45;;;;;;;2.05;1.55;;;17.50;65.70;;;;;;5053644;28;20573;-71
2021/12/31 10:49:13;;;;;;;1.60;1.00;;;17.80;61.20;;;;;;5057233;28;20059;-72
2021/12/31 10:51:41;;;;;;;1.88;1.00;;;17.30;62.70;;;;;;5056944;28;20053;-72
2021/12/31 10:54:28;;;;;;;2.95;1.00;;;17.40;58.50;;;;;;5044426;28;20123;-73
2021/12/31 10:56:55;;;;;;;2.10;1.00;;;17.60;60.70;;;;;;5036050;28;20135;-73
2021/12/31 10:59:22;;;;;;;1.60;1.00;;;;;;;;;;5053139;28;20045;-73
2021/12/31 11:01:49;;;;;;;1.48;1.15;;;17.60;65.30;;;;;;5056588;28;20140;-73
2021/12/31 11:04:17;;;;;;;2.95;1.10;;;17.60;60.60;;;;;;5057447;28;20576;-73
2021/12/31 11:06:43;;;;;;;1.17;0.98;;;17.60;65.30;;;;;;5056582;28;20062;-73
2021/12/31 11:09:10;;;;;;;1.35;0.95;;;17.70;60.30;;;;;;5054519;28;20132;-73
2021/12/31 11:11:38;;;;;;;1.52;0.90;;;17.40;65.40;;;;;;5052768;28;20139;-73
2021/12/31 11:14:05;;;;;;;0.98;0.90;;;16.30;64.70;;;;;;5033256;28;20128;-73
2021/12/31 11:16:37;;;;;;;1.50;1.00;;;17.40;58.60;;;;;;5033123;28;20057;-72
2021/12/31 11:19:03;;;;;;;1.30;1.08;;;16.70;64.90;;;;;;5033707;28;20050;-73
2021/12/31 11:21:30;;;;;;;1.20;1.00;;;;;;;;;;5053118;28;20144;-72
2021/12/31 11:23:57;;;;;;;2.38;1.10;;;17.20;65.50;;;;;;5054289;28;20137;-73
2021/12/31 11:26:27;;;;;;;2.55;1.15;;;17.10;65.30;;;;;;5052494;28;20144;-74
2021/12/31 11:28:58;;;;;;;2.20;1.10;;;17.30;58.70;;;;;;5052205;28;20391;-72
2021/12/31 11:31:25;;;;;;;1.40;1.20;;;17.80;59.10;;;;;;5069534;28;20055;-73
2021/12/31 11:34:15;;;;;;;2.45;1.00;;;17.40;65.40;;;;;;5052287;28;20133;-73
2021/12/31 11:36:42;;;;;;;1.73;1.10;;;17.10;65.60;;;;;;5051031;28;20124;-73
2021/12/31 11:39:15;;;;;;;1.42;1.10;;;17.50;61.10;;;;;;5051826;28;20095;-73
2021/12/31 11:41:42;;;;;;;3.30;1.30;;;17.20;65.60;;;;;;5050713;28;20167;-73
2021/12/31 11:44:13;;;;;;;1.63;1.40;;;17.10;62.20;;;;;;5053214;28;20164;-72
2021/12/31 11:46:40;;;;;;;3.95;1.10;;;17.40;65.50;;;;;;5052750;28;20148;-72
2021/12/31 11:49:12;;;;;;;2.35;1.13;;;17.30;58.80;;;;;;5051443;28;20514;-72
2021/12/31 11:51:54;;;;;;;2.45;1.02;;;17.10;65.70;;;;;;5050697;28;20065;-71
2021/12/31 11:54:21;;;;;;;2.50;1.20;;;;;;;;;;5051436;28;20145;-75
2021/12/31 11:57:07;;;;;;;2.03;1.20;;;16.20;65.10;;;;;;5048827;28;20174;-72
2021/12/31 11:59:38;;;;;;;;;;;17.20;59.90;;;;;;5050962;28;20123;-72
2021/12/31 12:02:07;;;;;;;2.50;1.35;;;17.10;59.00;;;;;;5052033;28;19933;-74
2021/12/31 12:04:34;;;;;;;1.50;1.15;;;16.40;58.80;;;;;;5049053;28;20128;-73
2021/12/31 12:07:01;;;;;;;2.17;1.20;;;17.60;66.10;;;;;;5049454;28;20132;-69
2021/12/31 12:10:01;;;;;;;1.92;1.20;;;17.00;64.20;;;;;;5032679;28;20045;-72
2021/12/31 12:12:29;;;;;;;1.80;1.20;;;17.10;66.00;;;;;;5036091;28;20118;-73
2021/12/31 12:14:58;;;;;;;1.45;1.35;;;17.10;59.00;;;;;;5049611;28;20044;-73
2021/12/31 12:17:43;;;;;;;4.60;1.42;;;16.90;65.50;;;;;;5051504;28;20124;-72
2021/12/31 12:20:11;;;;;;;1.92;1.00;;;;;;;;;;5046123;28;20049;-71
2021/12/31 12:22:44;;;;;;;2.58;1.08;;;17.10;59.10;;;;;;5050905;28;20040;-72
2021/12/31 12:25:12;;;;;;;1.73;1.30;;;17.70;66.30;;;;;;5049261;28;20060;-74
2021/12/31 12:27:38;;;;;;;2.05;1.20;;;16.80;64.40;;;;;;5051015;28;20123;-74
2021/12/31 12:30:08;;;;;;;1.90;1.20;;;16.30;65.60;;;;;;5050608;28;20128;-74
2021/12/31 12:32:38;;;;;;;2.55;1.20;;;16.80;65.70;;;;;;5049536;28;20048;-74
2021/12/31 12:35:13;;;;;;;1.98;1.25;;;17.10;64.80;;;;;;5048752;28;20095;-74
2021/12/31 12:37:40;;;;;;;2.28;1.25;;;;;;;;;;5034390;28;20147;-74
2021/12/31 12:40:08;;;;;;;1.80;1.20;;;16.90;65.90;;;;;;5050749;28;20144;-74
2021/12/31 12:42:35;;;;;;;2.72;1.42;;;17.10;62.50;;;;;;5052066;28;20136;-74
2021/12/31 12:45:02;;;;;;;1.40;1.00;;;17.10;66.00;;;;;;5051394;28;20143;-74
2021/12/31 12:47:30;;;;;;;1.67;1.15;;;17.00;59.80;;;;;;5050894;28;20131;-74
2021/12/31 12:49:57;;;;;;;1.83;1.20;;;16.80;61.70;;;;;;5048062;28;20052;-74
2021/12/31 12:52:24;;;;;;;1.50;1.13;;;17.20;66.20;;;;;;5048450;28;20515;-74
2021/12/31 12:55:08;;;;;;;1.30;1.20;;;17.50;66.60;;;;;;5034545;28;20132;-74
2021/12/31 12:57:35;;;;;;;2.35;1.33;;;17.50;66.30;;;;;;5049305;28;20059;-74
2021/12/31 13:00:02;;;;;;;1.95;1.10;;;16.90;66.10;;;;;;5050846;28;20045;-73
2021/12/31 13:02:41;;;;;;;2.20;1.20;;;16.90;59.50;;;;;;5068015;28;20592;-74
2021/12/31 13:05:08;;;;;;;2.05;1.30;;;16.80;66.30;;;;;;5031366;28;20060;-74
2021/12/31 13:07:35;;;;;;;1.38;1.13;;;;;;;;;;5031397;28;20057;-74
2021/12/31 13:10:06;;;;;;;2.83;1.25;;;16.00;65.60;;;;;;5031450;28;20060;-74